sensor_id;sensor_type;location;lat;lon;timestamp;pressure;altitude;pressure_sealevel;temperature;humidity
60258;BME280;46115;44.484;11.314;2022-11-15T00:02:49;100850.53;;;8.51;95.43
60258;BME280;46115;44.484;11.314;2022-11-15T00:07:10;100839.75;;;8.57;95.23
60258;BME280;46115;44.484;11.314;2022-11-15T00:11:30;100820.13;;;8.40;96.50
60258;BME280;46115;44.484;11.314;2022-11-15T00:15:56;100834.38;;;8.60;95.91
60258;BME280;46115;44.484;11.314;2022-11-15T00:20:17;100830.81;;;8.61;95.92
60258;BME280;46115;44.484;11.314;2022-11-15T00:24:38;100819.97;;;8.45;96.28
60258;BME280;46115;44.484;11.314;2022-11-15T00:28:59;100813.31;;;8.60;96.21
60258;BME280;46115;44.484;11.314;2022-11-15T00:33:21;100812.22;;;8.40;95.72
60258;BME280;46115;44.484;11.314;2022-11-15T00:37:42;100811.53;;;8.35;96.05
60258;BME280;46115;44.484;11.314;2022-11-15T00:42:03;100812.47;;;8.33;95.27
60258;BME280;46115;44.484;11.314;2022-11-15T00:46:24;100809.31;;;8.22;95.45
60258;BME280;46115;44.484;11.314;2022-11-15T00:50:47;100809.91;;;8.05;95.40
60258;BME280;46115;44.484;11.314;2022-11-15T00:55:09;100805.59;;;8.02;95.22
60258;BME280;46115;44.484;11.314;2022-11-15T00:59:34;100814.16;;;8.09;95.64
60258;BME280;46115;44.484;11.314;2022-11-15T01:03:55;100808.88;;;8.09;95.68
60258;BME280;46115;44.484;11.314;2022-11-15T01:08:17;100799.22;;;8.09;95.63
60258;BME280;46115;44.484;11.314;2022-11-15T01:12:38;100804.06;;;8.22;95.89
60258;BME280;46115;44.484;11.314;2022-11-15T01:16:59;100801.91;;;8.34;95.83
60258;BME280;46115;44.484;11.314;2022-11-15T01:21:20;100798.41;;;8.32;96.54
60258;BME280;46115;44.484;11.314;2022-11-15T01:25:42;100795.69;;;8.37;96.01
60258;BME280;46115;44.484;11.314;2022-11-15T01:30:04;100793.34;;;8.26;96.14
60258;BME280;46115;44.484;11.314;2022-11-15T01:34:25;100800.06;;;8.10;95.22
60258;BME280;46115;44.484;11.314;2022-11-15T01:38:46;100787.22;;;8.01;95.50
60258;BME280;46115;44.484;11.314;2022-11-15T01:43:27;100778.59;;;7.96;95.04
60258;BME280;46115;44.484;11.314;2022-11-15T01:47:51;100780.25;;;8.00;95.81
60258;BME280;46115;44.484;11.314;2022-11-15T01:52:17;100772.41;;;7.98;95.28
60258;BME280;46115;44.484;11.314;2022-11-15T01:56:43;100757.59;;;7.94;95.89
60258;BME280;46115;44.484;11.314;2022-11-15T02:01:08;100765.84;;;7.83;96.09
60258;BME280;46115;44.484;11.314;2022-11-15T02:05:30;100774.22;;;7.95;95.43
60258;BME280;46115;44.484;11.314;2022-11-15T02:09:51;100768.38;;;7.87;95.64
60258;BME280;46115;44.484;11.314;2022-11-15T02:14:14;100766.09;;;7.76;96.03
60258;BME280;46115;44.484;11.314;2022-11-15T02:18:40;100769.69;;;7.73;95.63
60258;BME280;46115;44.484;11.314;2022-11-15T02:33:03;100761.56;;;7.53;96.32
60258;BME280;46115;44.484;11.314;2022-11-15T02:37:34;100753.47;;;7.59;95.57
60258;BME280;46115;44.484;11.314;2022-11-15T02:42:00;100744.59;;;7.63;96.15
60258;BME280;46115;44.484;11.314;2022-11-15T02:46:28;100740.25;;;7.61;96.76
60258;BME280;46115;44.484;11.314;2022-11-15T02:51:05;100723.00;;;7.52;96.25
60258;BME280;46115;44.484;11.314;2022-11-15T02:55:31;100733.78;;;7.44;96.16
60258;BME280;46115;44.484;11.314;2022-11-15T03:00:09;100720.59;;;7.46;95.88
60258;BME280;46115;44.484;11.314;2022-11-15T03:04:38;100721.28;;;7.51;96.40
60258;BME280;46115;44.484;11.314;2022-11-15T03:09:07;100720.50;;;7.49;96.58
60258;BME280;46115;44.484;11.314;2022-11-15T03:13:35;100708.91;;;7.55;96.36
60258;BME280;46115;44.484;11.314;2022-11-15T03:18:01;100696.66;;;7.54;96.57
60258;BME280;46115;44.484;11.314;2022-11-15T03:22:24;100690.38;;;7.58;96.31
60258;BME280;46115;44.484;11.314;2022-11-15T03:26:49;100639.91;;;7.20;96.25
60258;BME280;46115;44.484;11.314;2022-11-15T03:31:12;100673.66;;;7.34;95.61
60258;BME280;46115;44.484;11.314;2022-11-15T03:35:53;100681.44;;;7.37;96.67
60258;BME280;46115;44.484;11.314;2022-11-15T03:40:15;100653.00;;;7.22;97.60
60258;BME280;46115;44.484;11.314;2022-11-15T03:44:43;100662.63;;;7.49;96.64
60258;BME280;46115;44.484;11.314;2022-11-15T03:49:10;100676.47;;;7.54;96.73
60258;BME280;46115;44.484;11.314;2022-11-15T03:53:32;100690.31;;;7.59;97.54
60258;BME280;46115;44.484;11.314;2022-11-15T03:57:54;100682.53;;;7.56;96.75
60258;BME280;46115;44.484;11.314;2022-11-15T04:02:18;100697.09;;;7.68;96.65
60258;BME280;46115;44.484;11.314;2022-11-15T04:06:39;100705.00;;;7.40;95.67
60258;BME280;46115;44.484;11.314;2022-11-15T04:11:00;100704.59;;;7.52;96.59
60258;BME280;46115;44.484;11.314;2022-11-15T04:15:24;100692.91;;;7.34;96.14
60258;BME280;46115;44.484;11.314;2022-11-15T04:19:46;100697.97;;;7.12;95.95
60258;BME280;46115;44.484;11.314;2022-11-15T04:24:25;100641.34;;;6.74;95.75
60258;BME280;46115;44.484;11.314;2022-11-15T04:28:46;100688.13;;;6.91;96.05
60258;BME280;46115;44.484;11.314;2022-11-15T04:33:21;100676.47;;;7.00;96.25
60258;BME280;46115;44.484;11.314;2022-11-15T04:37:43;100675.53;;;7.02;96.04
60258;BME280;46115;44.484;11.314;2022-11-15T04:42:04;100669.88;;;7.14;97.24
60258;BME280;46115;44.484;11.314;2022-11-15T04:46:26;100665.75;;;7.34;97.31
60258;BME280;46115;44.484;11.314;2022-11-15T04:50:48;100665.06;;;7.29;97.20
60258;BME280;46115;44.484;11.314;2022-11-15T04:55:10;100663.75;;;7.42;97.11
60258;BME280;46115;44.484;11.314;2022-11-15T04:59:32;100673.00;;;7.26;96.52
60258;BME280;46115;44.484;11.314;2022-11-15T05:03:52;100675.59;;;7.27;96.66
60258;BME280;46115;44.484;11.314;2022-11-15T05:08:31;100668.72;;;7.23;96.77
60258;BME280;46115;44.484;11.314;2022-11-15T05:12:53;100673.69;;;7.32;96.22
60258;BME280;46115;44.484;11.314;2022-11-15T05:17:14;100659.31;;;7.16;96.48
60258;BME280;46115;44.484;11.314;2022-11-15T05:21:35;100677.00;;;7.39;95.44
60258;BME280;46115;44.484;11.314;2022-11-15T05:25:58;100686.16;;;7.26;96.30
60258;BME280;46115;44.484;11.314;2022-11-15T05:30:20;100674.97;;;7.19;95.85
60258;BME280;46115;44.484;11.314;2022-11-15T05:34:41;100684.31;;;7.29;95.95
60258;BME280;46115;44.484;11.314;2022-11-15T05:39:03;100653.91;;;7.20;95.81
60258;BME280;46115;44.484;11.314;2022-11-15T05:43:25;100667.69;;;7.29;96.19
60258;BME280;46115;44.484;11.314;2022-11-15T05:47:48;100665.75;;;7.34;95.66
60258;BME280;46115;44.484;11.314;2022-11-15T05:52:12;100669.09;;;7.39;95.97
60258;BME280;46115;44.484;11.314;2022-11-15T05:56:35;100661.75;;;7.48;95.86
60258;BME280;46115;44.484;11.314;2022-11-15T06:00:56;100656.88;;;7.63;95.62
60258;BME280;46115;44.484;11.314;2022-11-15T06:05:18;100668.94;;;7.70;95.29
60258;BME280;46115;44.484;11.314;2022-11-15T06:09:39;100669.59;;;7.76;95.42
60258;BME280;46115;44.484;11.314;2022-11-15T06:14:00;100610.06;;;7.47;95.50
60258;BME280;46115;44.484;11.314;2022-11-15T06:18:21;100653.75;;;7.78;95.49
60258;BME280;46115;44.484;11.314;2022-11-15T06:22:44;100653.41;;;7.87;95.14
60258;BME280;46115;44.484;11.314;2022-11-15T06:27:04;100658.53;;;7.92;95.29
60258;BME280;46115;44.484;11.314;2022-11-15T06:31:25;100659.28;;;7.95;94.42
60258;BME280;46115;44.484;11.314;2022-11-15T06:35:46;100658.09;;;8.04;94.87
60258;BME280;46115;44.484;11.314;2022-11-15T06:40:09;100669.50;;;8.04;95.12
60258;BME280;46115;44.484;11.314;2022-11-15T06:44:31;100666.38;;;7.93;94.84
60258;BME280;46115;44.484;11.314;2022-11-15T06:48:52;100677.81;;;8.17;94.74
60258;BME280;46115;44.484;11.314;2022-11-15T06:53:13;100662.69;;;8.22;95.22
60258;BME280;46115;44.484;11.314;2022-11-15T06:57:36;100659.91;;;8.27;95.14
60258;BME280;46115;44.484;11.314;2022-11-15T07:01:57;100670.53;;;8.24;94.78
60258;BME280;46115;44.484;11.314;2022-11-15T07:06:18;100661.84;;;8.22;95.03
60258;BME280;46115;44.484;11.314;2022-11-15T07:10:39;100669.22;;;8.12;94.79
60258;BME280;46115;44.484;11.314;2022-11-15T07:15:01;100673.59;;;8.38;93.86
60258;BME280;46115;44.484;11.314;2022-11-15T07:19:21;100683.41;;;8.33;94.04
60258;BME280;46115;44.484;11.314;2022-11-15T07:23:43;100680.91;;;8.28;93.65
60258;BME280;46115;44.484;11.314;2022-11-15T07:28:04;100678.84;;;8.13;94.36
60258;BME280;46115;44.484;11.314;2022-11-15T07:32:26;100683.72;;;8.24;94.21
60258;BME280;46115;44.484;11.314;2022-11-15T07:36:47;100682.53;;;8.34;94.13
60258;BME280;46115;44.484;11.314;2022-11-15T07:41:08;100674.50;;;8.37;94.33
60258;BME280;46115;44.484;11.314;2022-11-15T07:45:30;100678.56;;;8.46;94.03
60258;BME280;46115;44.484;11.314;2022-11-15T07:49:54;100676.97;;;8.41;93.73
60258;BME280;46115;44.484;11.314;2022-11-15T07:54:15;100683.56;;;8.53;93.64
60258;BME280;46115;44.484;11.314;2022-11-15T07:58:36;100676.38;;;8.57;93.58
60258;BME280;46115;44.484;11.314;2022-11-15T08:03:04;100658.97;;;8.53;93.42
60258;BME280;46115;44.484;11.314;2022-11-15T08:07:28;100679.81;;;8.82;93.19
60258;BME280;46115;44.484;11.314;2022-11-15T08:11:49;100673.00;;;8.77;93.13
60258;BME280;46115;44.484;11.314;2022-11-15T08:16:10;100662.47;;;8.77;93.33
60258;BME280;46115;44.484;11.314;2022-11-15T08:20:32;100633.00;;;8.65;93.79
60258;BME280;46115;44.484;11.314;2022-11-15T08:24:55;100669.97;;;8.87;93.33
60258;BME280;46115;44.484;11.314;2022-11-15T08:29:15;100669.72;;;8.93;93.96
60258;BME280;46115;44.484;11.314;2022-11-15T08:33:36;100654.03;;;8.90;93.55
60258;BME280;46115;44.484;11.314;2022-11-15T08:37:57;100663.72;;;9.12;93.05
60258;BME280;46115;44.484;11.314;2022-11-15T08:42:19;100645.63;;;9.24;92.88
60258;BME280;46115;44.484;11.314;2022-11-15T08:46:40;100637.97;;;9.40;92.33
60258;BME280;46115;44.484;11.314;2022-11-15T08:51:01;100621.63;;;9.30;92.31
60258;BME280;46115;44.484;11.314;2022-11-15T08:55:22;100644.16;;;9.59;90.75
60258;BME280;46115;44.484;11.314;2022-11-15T08:59:45;100640.41;;;9.65;91.76
60258;BME280;46115;44.484;11.314;2022-11-15T09:04:06;100630.97;;;9.59;93.05
60258;BME280;46115;44.484;11.314;2022-11-15T09:08:30;100593.69;;;9.47;93.64
60258;BME280;46115;44.484;11.314;2022-11-15T09:12:51;100628.56;;;9.75;94.15
60258;BME280;46115;44.484;11.314;2022-11-15T09:17:14;100636.53;;;9.74;94.46
60258;BME280;46115;44.484;11.314;2022-11-15T09:21:35;100631.66;;;9.85;93.78
60258;BME280;46115;44.484;11.314;2022-11-15T09:25:58;100636.44;;;9.95;94.24
60258;BME280;46115;44.484;11.314;2022-11-15T09:30:20;100642.88;;;10.10;93.74
60258;BME280;46115;44.484;11.314;2022-11-15T09:34:42;100639.81;;;10.19;93.86
60258;BME280;46115;44.484;11.314;2022-11-15T09:39:03;100644.75;;;10.47;92.71
60258;BME280;46115;44.484;11.314;2022-11-15T09:43:30;100637.75;;;10.46;93.00
60258;BME280;46115;44.484;11.314;2022-11-15T09:48:06;100634.59;;;10.57;93.08
60258;BME280;46115;44.484;11.314;2022-11-15T09:52:27;100630.91;;;10.80;91.16
60258;BME280;46115;44.484;11.314;2022-11-15T09:56:31;100634.97;;;11.23;89.48
60258;BME280;46115;44.484;11.314;2022-11-15T10:00:38;100593.34;;;11.27;88.43
60258;BME280;46115;44.484;11.314;2022-11-15T10:04:42;100622.00;;;11.70;86.17
60258;BME280;46115;44.484;11.314;2022-11-15T10:08:56;100615.84;;;12.04;84.42
60258;BME280;46115;44.484;11.314;2022-11-15T10:13:00;100607.78;;;12.23;83.51
60258;BME280;46115;44.484;11.314;2022-11-15T10:17:27;100592.66;;;12.41;82.56
60258;BME280;46115;44.484;11.314;2022-11-15T10:21:40;100590.47;;;12.80;81.14
60258;BME280;46115;44.484;11.314;2022-11-15T10:25:51;100579.44;;;12.88;80.65
60258;BME280;46115;44.484;11.314;2022-11-15T10:29:54;100578.50;;;12.73;81.32
60258;BME280;46115;44.484;11.314;2022-11-15T10:33:58;100581.72;;;12.78;81.88
60258;BME280;46115;44.484;11.314;2022-11-15T10:38:07;100565.22;;;12.73;82.59
60258;BME280;46115;44.484;11.314;2022-11-15T10:42:26;100556.75;;;12.82;80.80
60258;BME280;46115;44.484;11.314;2022-11-15T10:46:28;100548.97;;;12.79;80.89
60258;BME280;46115;44.484;11.314;2022-11-15T10:50:32;100542.31;;;12.72;81.66
60258;BME280;46115;44.484;11.314;2022-11-15T10:54:37;100529.13;;;12.71;81.31
60258;BME280;46115;44.484;11.314;2022-11-15T10:58:44;100513.50;;;12.51;81.46
60258;BME280;46115;44.484;11.314;2022-11-15T11:02:57;100512.63;;;12.34;82.77
60258;BME280;46115;44.484;11.314;2022-11-15T11:06:59;100502.88;;;12.66;82.42
60258;BME280;46115;44.484;11.314;2022-11-15T11:11:03;100500.56;;;12.44;82.52
60258;BME280;46115;44.484;11.314;2022-11-15T11:15:12;100492.38;;;12.49;83.68
60258;BME280;46115;44.484;11.314;2022-11-15T11:19:24;100482.81;;;12.76;81.46
60258;BME280;46115;44.484;11.314;2022-11-15T11:23:39;100475.94;;;12.58;83.35
60258;BME280;46115;44.484;11.314;2022-11-15T11:27:58;100457.25;;;12.75;81.79
60258;BME280;46115;44.484;11.314;2022-11-15T11:32:12;100462.13;;;12.67;83.28
60258;BME280;46115;44.484;11.314;2022-11-15T11:36:26;100438.63;;;12.61;83.92
60258;BME280;46115;44.484;11.314;2022-11-15T11:40:32;100454.81;;;12.41;85.14
60258;BME280;46115;44.484;11.314;2022-11-15T11:44:44;100446.59;;;12.61;85.85
60258;BME280;46115;44.484;11.314;2022-11-15T11:48:57;100446.59;;;12.61;85.85
60258;BME280;46115;44.484;11.314;2022-11-15T11:53:04;100431.72;;;12.59;86.49
60258;BME280;46115;44.484;11.314;2022-11-15T11:57:14;100430.31;;;12.67;86.24
60258;BME280;46115;44.484;11.314;2022-11-15T12:01:22;100428.88;;;12.62;87.81
60258;BME280;46115;44.484;11.314;2022-11-15T12:05:30;100425.16;;;12.34;90.84
60258;BME280;46115;44.484;11.314;2022-11-15T12:09:38;100435.41;;;12.40;89.94
60258;BME280;46115;44.484;11.314;2022-11-15T12:13:42;100421.13;;;12.11;92.16
60258;BME280;46115;44.484;11.314;2022-11-15T12:17:45;100420.66;;;12.21;92.44
60258;BME280;46115;44.484;11.314;2022-11-15T12:21:55;100406.41;;;12.37;92.61
60258;BME280;46115;44.484;11.314;2022-11-15T12:26:01;100396.03;;;12.03;93.17
60258;BME280;46115;44.484;11.314;2022-11-15T12:30:11;100388.16;;;12.17;93.27
60258;BME280;46115;44.484;11.314;2022-11-15T12:34:35;100374.56;;;12.07;94.11
60258;BME280;46115;44.484;11.314;2022-11-15T12:38:56;100378.06;;;12.08;95.35
60258;BME280;46115;44.484;11.314;2022-11-15T12:47:27;100364.72;;;12.09;94.40
60258;BME280;46115;44.484;11.314;2022-11-15T12:52:06;100354.63;;;11.69;94.55
60258;BME280;46115;44.484;11.314;2022-11-15T12:56:19;100354.34;;;11.42;97.46
60258;BME280;46115;44.484;11.314;2022-11-15T13:00:37;100352.16;;;11.50;96.06
60258;BME280;46115;44.484;11.314;2022-11-15T13:04:40;100337.00;;;11.20;98.55
60258;BME280;46115;44.484;11.314;2022-11-15T13:08:48;100337.09;;;11.35;97.24
60258;BME280;46115;44.484;11.314;2022-11-15T13:12:56;100334.88;;;11.43;98.11
60258;BME280;46115;44.484;11.314;2022-11-15T13:16:59;100327.88;;;11.26;97.84
60258;BME280;46115;44.484;11.314;2022-11-15T13:21:03;100312.09;;;11.56;98.15
60258;BME280;46115;44.484;11.314;2022-11-15T13:25:48;100308.41;;;11.74;98.73
60258;BME280;46115;44.484;11.314;2022-11-15T13:29:56;100306.00;;;11.38;99.67
60258;BME280;46115;44.484;11.314;2022-11-15T13:34:01;100304.59;;;11.48;96.83
60258;BME280;46115;44.484;11.314;2022-11-15T13:38:05;100270.50;;;11.11;97.96
60258;BME280;46115;44.484;11.314;2022-11-15T13:42:14;100303.03;;;11.44;97.95
60258;BME280;46115;44.484;11.314;2022-11-15T13:46:20;100302.06;;;11.14;98.35
60258;BME280;46115;44.484;11.314;2022-11-15T13:50:24;100296.81;;;11.45;98.42
60258;BME280;46115;44.484;11.314;2022-11-15T13:54:29;100283.84;;;11.56;98.85
60258;BME280;46115;44.484;11.314;2022-11-15T13:58:32;100297.81;;;11.11;100.00
60258;BME280;46115;44.484;11.314;2022-11-15T14:02:36;100288.03;;;10.96;100.00
60258;BME280;46115;44.484;11.314;2022-11-15T14:06:44;100273.81;;;11.14;100.00
60258;BME280;46115;44.484;11.314;2022-11-15T14:10:48;100272.25;;;10.94;100.00
60258;BME280;46115;44.484;11.314;2022-11-15T14:14:51;100257.78;;;11.17;100.00
60258;BME280;46115;44.484;11.314;2022-11-15T14:18:54;100267.69;;;11.14;100.00
60258;BME280;46115;44.484;11.314;2022-11-15T14:22:58;100263.47;;;11.10;100.00
60258;BME280;46115;44.484;11.314;2022-11-15T14:27:16;100253.59;;;11.13;100.00
60258;BME280;46115;44.484;11.314;2022-11-15T14:31:19;100256.84;;;11.34;100.00
60258;BME280;46115;44.484;11.314;2022-11-15T14:35:24;100256.75;;;11.36;100.00
60258;BME280;46115;44.484;11.314;2022-11-15T14:39:27;100250.69;;;11.34;100.00
60258;BME280;46115;44.484;11.314;2022-11-15T14:43:29;100246.91;;;11.06;100.00
60258;BME280;46115;44.484;11.314;2022-11-15T14:47:31;100248.75;;;11.21;100.00
60258;BME280;46115;44.484;11.314;2022-11-15T14:51:35;100244.59;;;11.00;100.00
60258;BME280;46115;44.484;11.314;2022-11-15T14:55:37;100236.53;;;11.35;100.00
60258;BME280;46115;44.484;11.314;2022-11-15T14:59:40;100209.44;;;10.82;100.00
60258;BME280;46115;44.484;11.314;2022-11-15T15:03:42;100233.16;;;10.84;100.00
60258;BME280;46115;44.484;11.314;2022-11-15T15:07:47;100236.88;;;11.13;100.00
60258;BME280;46115;44.484;11.314;2022-11-15T15:11:49;100236.34;;;11.06;100.00
60258;BME280;46115;44.484;11.314;2022-11-15T15:15:52;100234.81;;;11.18;100.00
60258;BME280;46115;44.484;11.314;2022-11-15T15:19:55;100227.53;;;11.06;100.00
60258;BME280;46115;44.484;11.314;2022-11-15T15:23:58;100226.25;;;10.97;100.00
60258;BME280;46115;44.484;11.314;2022-11-15T15:28:01;100225.75;;;11.06;100.00
60258;BME280;46115;44.484;11.314;2022-11-15T15:32:04;100215.03;;;11.25;100.00
60258;BME280;46115;44.484;11.314;2022-11-15T15:36:10;100219.53;;;11.39;100.00
60258;BME280;46115;44.484;11.314;2022-11-15T15:40:16;100209.13;;;11.20;100.00
60258;BME280;46115;44.484;11.314;2022-11-15T15:44:19;100202.88;;;10.89;100.00
60258;BME280;46115;44.484;11.314;2022-11-15T15:48:21;100206.91;;;11.28;100.00
60258;BME280;46115;44.484;11.314;2022-11-15T15:52:24;100210.50;;;11.11;100.00
60258;BME280;46115;44.484;11.314;2022-11-15T15:56:27;100207.19;;;11.23;100.00
60258;BME280;46115;44.484;11.314;2022-11-15T16:00:30;100200.84;;;11.26;100.00
60258;BME280;46115;44.484;11.314;2022-11-15T16:04:33;100198.28;;;11.09;100.00
60258;BME280;46115;44.484;11.314;2022-11-15T16:08:36;100199.66;;;11.32;100.00
60258;BME280;46115;44.484;11.314;2022-11-15T23:06:09;99827.63;;;10.56;100.00
60258;BME280;46115;44.484;11.314;2022-11-15T23:10:12;99831.50;;;10.65;100.00
60258;BME280;46115;44.484;11.314;2022-11-15T23:14:31;99838.47;;;10.66;100.00
60258;BME280;46115;44.484;11.314;2022-11-15T23:18:35;99824.66;;;10.91;100.00
60258;BME280;46115;44.484;11.314;2022-11-15T23:22:39;99825.03;;;10.99;100.00
60258;BME280;46115;44.484;11.314;2022-11-15T23:26:49;99813.91;;;10.80;100.00
60258;BME280;46115;44.484;11.314;2022-11-15T23:30:52;99813.72;;;10.97;100.00
60258;BME280;46115;44.484;11.314;2022-11-15T23:35:11;99794.63;;;10.92;100.00
60258;BME280;46115;44.484;11.314;2022-11-15T23:39:15;99781.69;;;11.02;100.00
60258;BME280;46115;44.484;11.314;2022-11-15T23:43:18;99790.78;;;11.12;100.00
60258;BME280;46115;44.484;11.314;2022-11-15T23:47:20;99779.34;;;11.11;100.00
60258;BME280;46115;44.484;11.314;2022-11-15T23:51:23;99777.53;;;10.98;100.00
60258;BME280;46115;44.484;11.314;2022-11-15T23:55:27;99771.31;;;10.99;100.00
60258;BME280;46115;44.484;11.314;2022-11-15T23:59:30;99760.16;;;10.93;100.00
